Time;durP1;ratioP1;P1;durP2;ratioP2;P2;SDS_P1;SDS_P2;PMS_P1;PMS_P2;Temp;Humidity;BMP_temperature;BMP_pressure;BME280_temperature;BME280_humidity;BME280_pressure;Samples;Min_cycle;Max_cycle;Signal;HPM_P1;HPM_P2
2022/04/15 00:00:07;;;;;;;10.70;6.45;;;;;;;;;;6163373;23;20017;-78
2022/04/15 00:02:41;;;;;;;7.63;7.00;;;;;;;;;;6154034;23;20032;-78
2022/04/15 00:08:10;;;;;;;8.55;7.75;;;;;;;;;;6089604;23;20748;-79
2022/04/15 00:10:40;;;;;;;8.77;6.72;;;;;;;;;;6154063;23;20025;-79
2022/04/15 00:13:12;;;;;;;13.23;8.30;;;;;;;;;;6162001;23;20021;-80
2022/04/15 00:15:40;;;;;;;9.80;7.57;;;;;;;;;;6112938;23;20014;-78
2022/04/15 00:18:08;;;;;;;9.48;8.52;;;;;;;;;;6157655;23;20373;-80
2022/04/15 00:20:36;;;;;;;12.75;8.80;;;;;;;;;;6162611;23;20022;-80
2022/04/15 00:23:04;;;;;;;9.25;7.45;;;;;;;;;;6127339;23;20061;-79
2022/04/15 00:25:34;;;;;;;9.50;8.50;;;;;;;;;;6126139;23;20029;-80
2022/04/15 00:28:02;;;;;;;9.68;8.68;;;;;;;;;;6163125;23;20013;-79
2022/04/15 00:30:30;;;;;;;12.93;11.32;;;;;;;;;;6156314;23;20369;-80
2022/04/15 00:32:58;;;;;;;13.43;9.48;;;;;;;;;;6162724;23;20318;-79
2022/04/15 00:35:46;;;;;;;12.50;10.23;;;;;;;;;;6126296;23;20461;-79
2022/04/15 00:38:51;;;;;;;16.08;10.70;;;;;;;;;;6154858;23;20030;-79
2022/04/15 00:41:35;;;;;;;10.43;9.38;;;;;;;;;;6160377;23;20018;-79
2022/04/15 00:44:15;;;;;;;14.02;10.00;;;;;;;;;;6163163;23;20028;-79
2022/04/15 00:46:44;;;;;;;14.18;11.73;;;;;;;;;;6155292;23;20026;-79
2022/04/15 00:49:14;;;;;;;12.70;10.95;;;;;;;;;;6136543;23;20016;-79
2022/04/15 00:51:42;;;;;;;10.60;9.63;;;;;;;;;;6138831;23;20536;-79
2022/04/15 00:54:12;;;;;;;14.25;10.75;;;;;;;;;;6159111;23;20022;-80
2022/04/15 00:56:41;;;;;;;11.70;10.38;;;;;;;;;;6165265;23;20014;-80
2022/04/15 00:59:10;;;;;;;10.25;9.10;;;;;;;;;;6104008;23;20025;-79
2022/04/15 01:01:41;;;;;;;16.63;12.85;;;;;;;;;;6128185;23;20022;-79
2022/04/15 01:04:10;;;;;;;13.65;11.75;;;;;;;;;;6164478;23;20025;-79
2022/04/15 01:06:39;;;;;;;12.65;9.82;;;;;;;;;;6153887;23;20465;-80
2022/04/15 01:09:09;;;;;;;11.75;10.35;;;;;;;;;;6127895;23;20022;-80
2022/04/15 01:11:37;;;;;;;12.45;9.98;;;;;;;;;;6164818;23;20017;-80
2022/04/15 01:14:06;;;;;;;12.95;11.65;;;;;;;;;;6159752;23;20021;-82
2022/04/15 01:16:34;;;;;;;11.55;10.20;;;;;;;;;;6138850;23;20581;-82
2022/04/15 01:19:02;;;;;;;12.23;11.02;;;;;;;;;;6128887;23;20055;-81
2022/04/15 01:21:32;;;;;;;19.08;13.57;;;;;;;;;;6112393;23;20017;-80
2022/04/15 01:24:00;;;;;;;13.93;11.80;;;;;;;;;;6104297;23;20630;-83
2022/04/15 01:26:28;;;;;;;15.35;13.77;;;;;;;;;;6079829;23;20029;-82
2022/04/15 01:28:57;;;;;;;15.07;13.38;;;;;;;;;;6104345;23;20017;-81
2022/04/15 01:31:29;;;;;;;14.20;11.27;;;;;;;;;;6103551;23;20049;-80
2022/04/15 01:33:57;;;;;;;13.43;11.70;;;;;;;;;;6158242;23;20353;-82
2022/04/15 01:36:26;;;;;;;17.83;14.32;;;;;;;;;;6104358;23;20476;-81
2022/04/15 01:38:58;;;;;;;18.95;14.15;;;;;;;;;;6129878;23;20033;-81
2022/04/15 01:41:26;;;;;;;18.25;15.25;;;;;;;;;;6104218;23;20017;-80
2022/04/15 01:43:54;;;;;;;21.00;14.82;;;;;;;;;;6104427;23;20024;-81
2022/04/15 01:46:22;;;;;;;16.70;14.57;;;;;;;;;;6103456;23;20030;-82
2022/04/15 01:48:50;;;;;;;17.52;15.13;;;;;;;;;;6114091;23;20010;-81
2022/04/15 01:51:18;;;;;;;20.05;15.05;;;;;;;;;;6154926;23;20026;-81
2022/04/15 01:53:46;;;;;;;18.52;14.57;;;;;;;;;;6079408;23;20017;-83
2022/04/15 01:56:14;;;;;;;37.55;14.23;;;;;;;;;;6138453;23;20017;-84
2022/04/15 01:58:42;;;;;;;20.08;14.93;;;;;;;;;;6079306;23;20457;-84
2022/04/15 02:01:11;;;;;;;19.83;13.85;;;;;;;;;;6127388;23;20021;-83
2022/04/15 02:03:39;;;;;;;19.27;15.80;;;;;;;;;;6114334;23;20013;-84
2022/04/15 02:06:07;;;;;;;14.65;13.18;;;;;;;;;;6131960;23;20018;-84
2022/04/15 02:08:35;;;;;;;21.40;14.48;;;;;;;;;;6103031;23;20018;-84
2022/04/15 02:11:03;;;;;;;20.48;16.77;;;;;;;;;;6129041;23;20775;-84
2022/04/15 02:13:31;;;;;;;18.30;14.27;;;;;;;;;;6161633;23;20018;-84
2022/04/15 02:16:01;;;;;;;21.05;16.67;;;;;;;;;;6138443;23;20016;-85
2022/04/15 02:18:30;;;;;;;18.75;15.02;;;;;;;;;;6102831;23;20026;-85
2022/04/15 02:20:59;;;;;;;18.83;13.65;;;;;;;;;;6113932;23;20021;-85
2022/04/15 02:23:27;;;;;;;14.73;12.52;;;;;;;;;;6126226;23;20357;-85
2022/04/15 02:25:55;;;;;;;16.20;13.30;;;;;;;;;;6159013;23;20030;-84
2022/04/15 02:28:23;;;;;;;15.88;12.88;;;;;;;;;;6162963;23;20013;-86
2022/04/15 02:30:52;;;;;;;15.75;13.52;;;;;;;;;;6155942;23;20037;-85
2022/04/15 02:33:21;;;;;;;16.63;14.02;;;;;;;;;;6136040;23;20433;-85
2022/04/15 02:35:49;;;;;;;19.77;12.90;;;;;;;;;;6104390;23;20032;-85
2022/04/15 02:38:17;;;;;;;18.27;14.27;;;;;;;;;;6101952;23;20487;-85
2022/04/15 02:40:46;;;;;;;17.70;14.02;;;;;;;;;;6163969;23;20075;-85
2022/04/15 02:43:14;;;;;;;26.88;14.80;;;;;;;;;;6128457;23;20025;-85
2022/04/15 02:45:42;;;;;;;22.33;14.93;;;;;;;;;;6160888;23;20033;-85
2022/04/15 02:48:11;;;;;;;26.70;13.30;;;;;;;;;;6163829;23;20320;-85
2022/04/15 02:50:39;;;;;;;15.57;13.93;;;;;;;;;;6130400;23;20365;-86
2022/04/15 02:53:07;;;;;;;17.13;15.52;;;;;;;;;;6162950;23;20014;-85
2022/04/15 02:55:36;;;;;;;18.30;12.95;;;;;;;;;;6138187;23;20017;-86
2022/04/15 02:58:04;;;;;;;22.40;14.88;;;;;;;;;;6159152;23;20017;-86
2022/04/15 03:00:32;;;;;;;22.17;15.77;;;;;;;;;;6163814;23;20024;-86
2022/04/15 03:03:00;;;;;;;20.60;15.40;;;;;;;;;;6128269;23;20476;-86
2022/04/15 03:05:30;;;;;;;21.38;14.00;;;;;;;;;;6122094;23;20022;-85
2022/04/15 03:07:58;;;;;;;19.58;14.27;;;;;;;;;;6132606;23;20025;-86
2022/04/15 03:10:26;;;;;;;18.65;16.75;;;;;;;;;;6121940;23;20025;-87
2022/04/15 03:12:54;;;;;;;16.65;14.02;;;;;;;;;;6156605;23;20010;-86
2022/04/15 03:15:23;;;;;;;22.60;14.05;;;;;;;;;;6123928;23;20033;-86
2022/04/15 03:17:51;;;;;;;16.20;14.48;;;;;;;;;;6073480;23;20345;-86
2022/04/15 03:20:19;;;;;;;19.98;16.15;;;;;;;;;;6098184;23;20022;-87
2022/04/15 03:23:02;;;;;;;19.10;16.35;;;;;;;;;;6126065;23;20076;-91
2022/04/15 03:26:09;;;;;;;17.88;15.80;;;;;;;;;;6113041;23;20033;-86
2022/04/15 03:28:37;;;;;;;20.42;16.77;;;;;;;;;;6134480;23;20018;-86
2022/04/15 03:31:06;;;;;;;18.77;15.77;;;;;;;;;;6122317;23;20037;-86
2022/04/15 03:33:39;;;;;;;21.77;16.25;;;;;;;;;;6074394;23;20485;-85
2022/04/15 03:36:07;;;;;;;21.00;15.85;;;;;;;;;;6098852;23;20025;-85
2022/04/15 03:38:35;;;;;;;20.73;15.52;;;;;;;;;;6126596;23;20036;-85
2022/04/15 03:41:04;;;;;;;24.02;18.63;;;;;;;;;;6133661;23;20029;-85
2022/04/15 03:43:32;;;;;;;25.15;16.42;;;;;;;;;;6134505;23;20460;-86
2022/04/15 03:46:00;;;;;;;21.67;15.02;;;;;;;;;;6074226;23;20547;-85
2022/04/15 03:48:29;;;;;;;22.50;17.85;;;;;;;;;;6132129;23;20040;-86
2022/04/15 03:50:57;;;;;;;17.25;15.32;;;;;;;;;;6125007;23;20018;-86
2022/04/15 03:53:25;;;;;;;24.15;16.75;;;;;;;;;;6097437;23;20041;-86
2022/04/15 03:55:53;;;;;;;20.65;16.55;;;;;;;;;;6097945;23;20472;-86
2022/04/15 03:58:21;;;;;;;20.25;16.58;;;;;;;;;;6127455;23;20045;-85
2022/04/15 04:00:50;;;;;;;22.17;16.52;;;;;;;;;;6122358;23;20342;-86
2022/04/15 04:03:18;;;;;;;21.25;16.90;;;;;;;;;;6121351;23;20030;-86
2022/04/15 04:05:47;;;;;;;20.27;15.00;;;;;;;;;;6108352;23;20025;-86
2022/04/15 04:08:15;;;;;;;25.60;17.65;;;;;;;;;;6136730;23;20013;-86
2022/04/15 04:10:43;;;;;;;32.20;18.20;;;;;;;;;;6129539;23;20028;-86
2022/04/15 04:13:11;;;;;;;18.77;15.10;;;;;;;;;;6135910;23;20433;-86
2022/04/15 04:15:40;;;;;;;17.70;14.13;;;;;;;;;;6137692;23;20021;-86
2022/04/15 04:18:09;;;;;;;18.60;15.82;;;;;;;;;;6078004;23;20036;-86
2022/04/15 04:20:38;;;;;;;19.75;13.85;;;;;;;;;;6127265;23;20053;-86
2022/04/15 04:23:06;;;;;;;20.15;15.63;;;;;;;;;;6101790;23;20516;-86
2022/04/15 04:25:34;;;;;;;24.65;19.15;;;;;;;;;;6078542;23;20468;-85
2022/04/15 04:28:02;;;;;;;16.73;14.93;;;;;;;;;;6137363;23;20469;-85
2022/04/15 04:30:30;;;;;;;17.35;15.05;;;;;;;;;;6130188;23;20048;-85
2022/04/15 04:32:59;;;;;;;20.00;14.15;;;;;;;;;;6112881;23;20013;-86
2022/04/15 04:35:28;;;;;;;19.23;15.55;;;;;;;;;;6152103;23;20021;-85
2022/04/15 04:37:56;;;;;;;17.75;14.02;;;;;;;;;;6126223;23;20021;-85
2022/04/15 04:40:24;;;;;;;20.30;16.63;;;;;;;;;;6163114;23;20025;-86
2022/04/15 04:42:52;;;;;;;18.65;16.25;;;;;;;;;;6124921;23;20056;-85
2022/04/15 04:45:20;;;;;;;31.80;16.50;;;;;;;;;;6160911;23;20025;-84
2022/04/15 04:47:49;;;;;;;17.02;15.27;;;;;;;;;;6137385;23;20017;-84
2022/04/15 04:50:17;;;;;;;21.27;17.83;;;;;;;;;;6131442;23;20357;-84
2022/04/15 04:52:46;;;;;;;25.30;16.60;;;;;;;;;;6163250;23;20025;-84
2022/04/15 04:55:15;;;;;;;24.27;16.75;;;;;;;;;;6126988;23;20484;-84
2022/04/15 04:57:43;;;;;;;25.63;19.83;;;;;;;;;;6159705;23;20018;-84
2022/04/15 05:00:12;;;;;;;18.80;14.65;;;;;;;;;;6162920;23;20021;-84
2022/04/15 05:02:40;;;;;;;27.67;18.80;;;;;;;;;;6129141;23;20029;-83
2022/04/15 05:05:09;;;;;;;25.25;17.60;;;;;;;;;;6160756;23;20446;-85
2022/04/15 05:07:37;;;;;;;27.27;18.13;;;;;;;;;;6136782;23;20334;-84
2022/04/15 05:10:08;;;;;;;31.83;19.90;;;;;;;;;;6132200;23;20025;-83
2022/04/15 05:12:36;;;;;;;24.02;20.98;;;;;;;;;;6163120;23;20017;-84
2022/04/15 05:15:04;;;;;;;26.60;19.35;;;;;;;;;;6128497;23;20028;-85
2022/04/15 05:17:32;;;;;;;33.65;21.02;;;;;;;;;;6160305;23;20018;-86
2022/04/15 05:20:00;;;;;;;28.17;21.50;;;;;;;;;;6078372;23;20036;-86
2022/04/15 05:22:28;;;;;;;24.70;20.40;;;;;;;;;;6156407;23;20457;-84
2022/04/15 05:24:56;;;;;;;26.17;19.45;;;;;;;;;;6162900;23;20029;-84
2022/04/15 05:27:24;;;;;;;27.02;20.95;;;;;;;;;;6152737;23;20014;-84
2022/04/15 05:29:53;;;;;;;27.83;20.23;;;;;;;;;;6126303;23;20021;-84
2022/04/15 05:32:24;;;;;;;30.15;20.83;;;;;;;;;;6103206;23;20024;-84
2022/04/15 05:34:52;;;;;;;25.17;20.83;;;;;;;;;;6128774;23;20021;-85
2022/04/15 05:37:20;;;;;;;26.17;20.92;;;;;;;;;;6162484;23;20021;-84
2022/04/15 05:39:51;;;;;;;22.35;17.17;;;;;;;;;;6138573;23;20013;-86
2022/04/15 05:42:19;;;;;;;22.95;17.85;;;;;;;;;;6108856;23;20472;-84
2022/04/15 05:44:47;;;;;;;25.60;19.45;;;;;;;;;;6165107;23;20014;-84
2022/04/15 05:47:15;;;;;;;24.92;19.80;;;;;;;;;;6155338;23;20025;-85
2022/04/15 05:49:43;;;;;;;32.95;20.77;;;;;;;;;;6161209;23;20457;-85
2022/04/15 05:52:11;;;;;;;33.22;24.02;;;;;;;;;;6164848;23;20014;-85
2022/04/15 05:54:39;;;;;;;23.20;18.45;;;;;;;;;;6131260;23;20033;-84
2022/04/15 05:57:07;;;;;;;23.08;18.80;;;;;;;;;;6137654;23;20449;-85
2022/04/15 05:59:35;;;;;;;22.63;17.73;;;;;;;;;;6138337;23;20009;-86
2022/04/15 06:02:06;;;;;;;26.45;21.50;;;;;;;;;;6133693;23;20044;-86
2022/04/15 06:04:35;;;;;;;24.20;19.10;;;;;;;;;;6103246;23;20018;-86
2022/04/15 06:07:03;;;;;;;19.88;16.77;;;;;;;;;;6102764;23;20353;-86
2022/04/15 06:09:31;;;;;;;22.15;14.32;;;;;;;;;;6127384;23;20021;-85
2022/04/15 06:11:59;;;;;;;26.83;18.73;;;;;;;;;;6103790;23;20449;-86
2022/04/15 06:14:33;;;;;;;21.13;18.50;;;;;;;;;;6103372;23;20028;-85
2022/04/15 06:17:01;;;;;;;22.80;18.08;;;;;;;;;;6127298;23;20024;-85
2022/04/15 06:19:29;;;;;;;22.88;19.40;;;;;;;;;;6103592;23;20020;-86
2022/04/15 06:22:02;;;;;;;21.00;16.90;;;;;;;;;;6159415;23;20433;-87
2022/04/15 06:24:30;;;;;;;24.55;16.58;;;;;;;;;;6137955;23;20013;-87
2022/04/15 06:26:58;;;;;;;24.58;17.20;;;;;;;;;;6155667;23;20025;-86
2022/04/15 06:29:27;;;;;;;25.15;18.35;;;;;;;;;;6161254;23;20013;-86
2022/04/15 06:31:55;;;;;;;24.48;18.98;;;;;;;;;;6079565;23;20018;-84
2022/04/15 06:34:23;;;;;;;21.30;16.42;;;;;;;;;;6157555;23;20038;-86
2022/04/15 06:36:51;;;;;;;26.13;15.50;;;;;;;;;;6164195;23;20009;-86
2022/04/15 06:39:19;;;;;;;27.80;18.42;;;;;;;;;;6103616;23;20022;-86
2022/04/15 06:41:47;;;;;;;22.30;15.98;;;;;;;;;;6134085;23;20022;-87
2022/04/15 06:44:17;;;;;;;20.13;15.07;;;;;;;;;;6114212;23;20334;-87
2022/04/15 06:46:45;;;;;;;25.80;17.02;;;;;;;;;;6078545;23;20029;-86
2022/04/15 06:49:13;;;;;;;22.42;18.63;;;;;;;;;;6103042;23;20033;-85
2022/04/15 06:51:41;;;;;;;25.25;17.63;;;;;;;;;;6138300;23;20009;-86
2022/04/15 06:54:10;;;;;;;27.27;16.85;;;;;;;;;;6127076;23;20013;-85
2022/04/15 06:56:38;;;;;;;24.25;17.58;;;;;;;;;;6113995;23;20018;-86
2022/04/15 06:59:06;;;;;;;24.35;18.73;;;;;;;;;;6129343;23;20022;-85
2022/04/15 07:01:35;;;;;;;26.30;18.80;;;;;;;;;;6161106;23;20029;-86
2022/04/15 07:04:03;;;;;;;26.55;18.67;;;;;;;;;;6137514;23;20013;-86
2022/04/15 07:06:31;;;;;;;29.15;22.38;;;;;;;;;;6130405;23;20457;-84
2022/04/15 07:08:59;;;;;;;27.60;17.80;;;;;;;;;;6163262;23;20017;-85
2022/04/15 07:11:27;;;;;;;30.08;21.92;;;;;;;;;;6102755;23;20033;-86
2022/04/15 07:13:55;;;;;;;25.08;18.98;;;;;;;;;;6127114;23;20021;-85
2022/04/15 07:16:23;;;;;;;39.13;25.33;;;;;;;;;;6128115;23;20353;-83
2022/04/15 07:18:54;;;;;;;35.72;25.60;;;;;;;;;;6104689;23;20024;-85
2022/04/15 07:21:23;;;;;;;28.85;20.08;;;;;;;;;;6135693;23;20018;-87
2022/04/15 07:23:51;;;;;;;24.58;17.58;;;;;;;;;;6113014;23;20457;-85
2022/04/15 07:26:19;;;;;;;23.88;17.50;;;;;;;;;;6157928;23;20044;-86
2022/04/15 07:28:47;;;;;;;27.15;18.67;;;;;;;;;;6162888;23;20017;-85
2022/04/15 07:31:15;;;;;;;25.80;20.10;;;;;;;;;;6103836;23;20021;-85
2022/04/15 07:33:46;;;;;;;29.30;18.25;;;;;;;;;;6133702;23;20028;-86
2022/04/15 07:39:06;;;;;;;30.40;20.20;;;;;;;;;;6153871;23;20029;-84
2022/04/15 07:41:36;;;;;;;24.07;18.77;;;;;;;;;;6160612;23;20018;-84
2022/04/15 07:44:04;;;;;;;28.17;20.05;;;;;;;;;;6163707;23;20025;-83
2022/04/15 07:46:33;;;;;;;30.48;22.65;;;;;;;;;;6155947;23;20025;-83
2022/04/15 07:49:01;;;;;;;22.27;17.55;;;;;;;;;;6125795;23;20025;-82
2022/04/15 07:51:30;;;;;;;33.08;20.83;;;;;;;;;;6137441;23;20014;-83
2022/04/15 07:53:58;;;;;;;33.03;23.15;;;;;;;;;;6158435;23;20021;-85
2022/04/15 07:56:27;;;;;;;26.63;18.92;;;;;;;;;;6113338;23;20010;-83
2022/04/15 07:58:55;;;;;;;25.77;19.38;;;;;;;;;;6127997;23;20025;-84
2022/04/15 08:01:30;;;;;;;37.38;19.60;;;;;;;;;;6160802;23;20020;-84
2022/04/15 08:03:59;;;;;;;28.80;20.23;;;;;;;;;;6102877;23;20070;-83
2022/04/15 08:06:29;;;;;;;24.27;18.10;;;;;;;;;;6121541;23;20057;-85
2022/04/15 08:08:58;;;;;;;30.90;19.30;;;;;;;;;;6074014;23;20018;-85
2022/04/15 08:11:26;;;;;;;25.42;16.73;;;;;;;;;;6097973;23;20014;-79
2022/04/15 08:13:56;;;;;;;24.15;18.25;;;;;;;;;;6129218;23;20029;-88
2022/04/15 08:16:30;;;;;;;24.52;19.65;;;;;;;;;;6075247;23;20022;-86
2022/04/15 08:18:58;;;;;;;23.77;17.00;;;;;;;;;;6122689;23;20029;-86
2022/04/15 08:21:29;;;;;;;27.20;19.45;;;;;;;;;;6130251;23;20018;-88
2022/04/15 08:24:01;;;;;;;21.57;17.80;;;;;;;;;;6122465;23;20448;-87
2022/04/15 08:26:39;;;;;;;28.75;18.10;;;;;;;;;;6127111;23;20476;-87
2022/04/15 08:29:07;;;;;;;31.05;19.23;;;;;;;;;;6121960;23;20458;-82
2022/04/15 08:31:35;;;;;;;22.75;17.85;;;;;;;;;;6132033;23;20014;-87
2022/04/15 08:34:03;;;;;;;22.73;16.40;;;;;;;;;;6126261;23;20357;-81
2022/04/15 08:36:31;;;;;;;25.45;20.15;;;;;;;;;;6131684;23;20021;-80
2022/04/15 08:39:00;;;;;;;20.95;16.45;;;;;;;;;;6122953;23;20049;-82
2022/04/15 08:41:29;;;;;;;18.50;14.55;;;;;;;;;;6105487;23;20029;-86
2022/04/15 08:43:58;;;;;;;19.67;16.55;;;;;;;;;;6122352;23;20024;-84
2022/04/15 08:46:26;;;;;;;19.15;14.95;;;;;;;;;;6120653;23;20346;-79
2022/04/15 08:48:54;;;;;;;23.17;16.05;;;;;;;;;;6131139;23;20018;-84
2022/04/15 08:51:23;;;;;;;18.52;14.50;;;;;;;;;;6123533;23;20073;-84
2022/04/15 08:53:54;;;;;;;23.15;16.08;;;;;;;;;;6103133;23;20037;-86
2022/04/15 08:56:23;;;;;;;19.60;14.40;;;;;;;;;;6097814;23;20029;-85
2022/04/15 08:58:51;;;;;;;21.42;16.40;;;;;;;;;;6124036;23;20041;-84
2022/04/15 09:01:20;;;;;;;25.15;15.82;;;;;;;;;;6130422;23;20021;-83
2022/04/15 09:03:48;;;;;;;19.90;16.10;;;;;;;;;;6073323;23;20025;-84
2022/04/15 09:06:17;;;;;;;21.42;14.82;;;;;;;;;;6109229;23;20029;-83
2022/04/15 09:09:04;;;;;;;19.08;16.17;;;;;;;;;;6131982;23;20014;-84
2022/04/15 09:11:56;;;;;;;19.25;15.63;;;;;;;;;;6122629;23;20476;-82
2022/04/15 09:14:27;;;;;;;16.73;12.93;;;;;;;;;;6128564;23;20030;-83
2022/04/15 09:16:56;;;;;;;18.52;14.30;;;;;;;;;;6109603;23;20010;-82
2022/04/15 09:19:24;;;;;;;17.65;15.43;;;;;;;;;;6123104;23;20465;-82
2022/04/15 09:21:58;;;;;;;14.75;13.05;;;;;;;;;;6098843;23;20021;-81
2022/04/15 09:24:31;;;;;;;15.02;11.50;;;;;;;;;;6074740;23;20014;-83
2022/04/15 09:27:06;;;;;;;17.60;12.68;;;;;;;;;;6125166;23;20037;-85
2022/04/15 09:29:34;;;;;;;15.30;11.00;;;;;;;;;;6131972;23;20022;-82
2022/04/15 09:32:07;;;;;;;16.25;12.93;;;;;;;;;;6109331;23;20017;-84
2022/04/15 09:34:35;;;;;;;10.68;9.55;;;;;;;;;;6127848;23;20051;-79
2022/04/15 09:37:08;;;;;;;13.43;11.68;;;;;;;;;;6137820;23;20013;-81
2022/04/15 09:39:37;;;;;;;13.90;12.18;;;;;;;;;;6134584;23;20017;-84
2022/04/15 09:42:08;;;;;;;8.70;7.78;;;;;;;;;;6122575;23;20014;-84
2022/04/15 09:44:37;;;;;;;10.65;8.52;;;;;;;;;;6133352;23;20339;-81
2022/04/15 09:47:05;;;;;;;15.52;14.00;;;;;;;;;;6125333;23;20035;-79
2022/04/15 09:49:34;;;;;;;14.95;9.73;;;;;;;;;;6131350;23;20028;-80
2022/04/15 09:52:04;;;;;;;9.98;8.93;;;;;;;;;;6131497;23;20017;-82
2022/04/15 09:54:35;;;;;;;12.80;9.73;;;;;;;;;;6127569;23;20025;-74
2022/04/15 09:57:04;;;;;;;14.10;10.25;;;;;;;;;;6134170;23;20010;-76
2022/04/15 09:59:33;;;;;;;10.52;7.75;;;;;;;;;;6134333;23;20014;-77
2022/04/15 10:02:07;;;;;;;11.00;8.55;;;;;;;;;;6123882;23;20022;-76
2022/04/15 10:04:36;;;;;;;11.33;7.80;;;;;;;;;;6133714;23;20018;-75
2022/04/15 10:07:07;;;;;;;14.15;9.98;;;;;;;;;;6151898;23;20017;-76
2022/04/15 10:09:38;;;;;;;11.35;9.50;;;;;;;;;;6160331;23;20021;-75
2022/04/15 10:12:07;;;;;;;16.08;11.55;;;;;;;;;;6128012;23;20021;-76
2022/04/15 10:14:35;;;;;;;10.77;7.80;;;;;;;;;;6157086;23;20029;-76
2022/04/15 10:17:04;;;;;;;13.32;8.82;;;;;;;;;;6127771;23;20017;-76
2022/04/15 10:19:33;;;;;;;9.43;8.52;;;;;;;;;;6163891;23;20025;-77
2022/04/15 10:22:01;;;;;;;11.20;8.45;;;;;;;;;;6127348;23;20018;-81
2022/04/15 10:24:29;;;;;;;12.05;10.45;;;;;;;;;;6163227;23;20470;-80
2022/04/15 10:26:59;;;;;;;11.57;9.38;;;;;;;;;;6128704;23;20028;-81
2022/04/15 10:29:27;;;;;;;10.90;8.48;;;;;;;;;;6135406;23;20025;-81
2022/04/15 10:31:56;;;;;;;9.95;8.63;;;;;;;;;;6164130;23;20434;-80
2022/04/15 10:34:24;;;;;;;13.40;11.32;;;;;;;;;;6157342;23;20029;-80
2022/04/15 10:36:54;;;;;;;13.98;8.55;;;;;;;;;;6137923;23;20018;-77
2022/04/15 10:39:26;;;;;;;13.05;9.80;;;;;;;;;;6128417;23;20056;-76
2022/04/15 10:41:58;;;;;;;13.02;9.15;;;;;;;;;;6159263;23;20025;-77
2022/04/15 10:44:27;;;;;;;11.00;9.48;;;;;;;;;;6163669;23;20429;-77
2022/04/15 10:46:59;;;;;;;10.52;9.30;;;;;;;;;;6155419;23;20026;-76
2022/04/15 10:49:30;;;;;;;14.65;9.52;;;;;;;;;;6160411;23;20524;-76
2022/04/15 10:51:59;;;;;;;15.85;9.98;;;;;;;;;;6127114;23;20449;-76
2022/04/15 10:54:34;;;;;;;9.50;6.78;;;;;;;;;;6156640;23;20029;-76
2022/04/15 10:57:03;;;;;;;9.65;8.55;;;;;;;;;;6162965;23;20017;-77
2022/04/15 11:02:24;;;;;;;10.95;9.82;;;;;;;;;;6157197;23;20032;-76
2022/04/15 11:04:53;;;;;;;8.97;8.07;;;;;;;;;;6136805;23;20442;-77
2022/04/15 11:07:28;;;;;;;15.68;9.25;;;;;;;;;;6153255;23;20528;-77
2022/04/15 11:09:58;;;;;;;8.95;7.20;;;;;;;;;;6158863;23;20318;-77
2022/04/15 11:12:44;;;;;;;11.30;7.85;;;;;;;;;;6163758;23;20374;-76
2022/04/15 11:15:15;;;;;;;17.63;8.32;;;;;;;;;;6102022;23;20026;-76
2022/04/15 11:17:47;;;;;;;6.00;4.88;;;;;;;;;;6160199;23;20021;-76
2022/04/15 11:20:16;;;;;;;8.93;6.38;;;;;;;;;;6163283;23;20013;-76
2022/04/15 11:22:44;;;;;;;10.82;8.90;;;;;;;;;;6129212;23;20026;-75
2022/04/15 11:25:13;;;;;;;12.10;7.78;;;;;;;;;;6161399;23;20018;-75
2022/04/15 11:27:41;;;;;;;7.78;7.03;;;;;;;;;;6163208;23;20020;-77
2022/04/15 11:30:13;;;;;;;8.73;7.68;;;;;;;;;;6157899;23;20021;-76
2022/04/15 11:32:48;;;;;;;9.25;8.15;;;;;;;;;;6162904;23;20021;-75
2022/04/15 11:35:29;;;;;;;7.28;5.65;;;;;;;;;;6152679;23;20026;-78
2022/04/15 11:37:58;;;;;;;8.18;6.70;;;;;;;;;;6125193;23;20026;-77
2022/04/15 11:40:28;;;;;;;8.77;6.22;;;;;;;;;;6162924;23;20013;-76
2022/04/15 11:42:57;;;;;;;11.93;9.27;;;;;;;;;;6155126;23;20025;-76
2022/04/15 11:45:35;;;;;;;10.77;8.57;;;;;;;;;;6161141;23;20032;-76
2022/04/15 11:48:19;;;;;;;8.55;7.70;;;;;;;;;;6162842;23;20438;-76
2022/04/15 11:50:49;;;;;;;7.88;6.88;;;;;;;;;;6155629;23;20025;-77
2022/04/15 11:53:18;;;;;;;7.57;6.38;;;;;;;;;;6161342;23;20021;-77
2022/04/15 11:55:47;;;;;;;7.97;5.93;;;;;;;;;;6163251;23;20017;-75
2022/04/15 11:58:15;;;;;;;7.40;6.63;;;;;;;;;;6131727;23;20029;-75
2022/04/15 12:00:50;;;;;;;9.77;8.65;;;;;;;;;;6163005;23;20020;-72
2022/04/15 12:03:18;;;;;;;9.30;6.75;;;;;;;;;;6153047;23;20034;-73
2022/04/15 12:05:46;;;;;;;7.57;5.22;;;;;;;;;;6154654;23;20343;-73
2022/04/15 12:08:15;;;;;;;6.47;5.88;;;;;;;;;;6162083;23;20022;-73
2022/04/15 12:10:44;;;;;;;7.20;5.57;;;;;;;;;;6155269;23;20036;-73
2022/04/15 12:13:12;;;;;;;5.40;4.65;;;;;;;;;;6161501;23;20029;-73
2022/04/15 12:15:40;;;;;;;4.68;3.58;;;;;;;;;;6163155;23;20014;-73
2022/04/15 12:18:10;;;;;;;5.03;4.53;;;;;;;;;;6157396;23;20018;-73
2022/04/15 12:20:39;;;;;;;5.47;4.28;;;;;;;;;;6162899;23;20025;-74
2022/04/15 12:23:14;;;;;;;5.97;5.38;;;;;;;;;;6153508;23;20041;-74
2022/04/15 12:31:27;;;;;;;5.03;4.43;;;;;;;;;;6152570;23;20032;-74
2022/04/15 12:33:57;;;;;;;6.72;5.90;;;;;;;;;;6157787;23;20029;-74
2022/04/15 12:36:25;;;;;;;5.07;4.68;;;;;;;;;;6162677;23;20010;-73
2022/04/15 12:38:57;;;;;;;3.67;3.35;;;;;;;;;;6154348;23;20030;-75
2022/04/15 12:41:25;;;;;;;4.80;4.10;;;;;;;;;;6160352;23;20021;-73
2022/04/15 12:44:30;;;;;;;7.43;5.00;;;;;;;;;;6163025;23;20022;-73
2022/04/15 12:47:00;;;;;;;5.70;4.55;;;;;;;;;;6144187;23;20453;-73
2022/04/15 12:49:33;;;;;;;5.03;4.37;;;;;;;;;;6160276;23;20033;-71
2022/04/15 12:52:07;;;;;;;4.15;3.58;;;;;;;;;;6162255;23;20017;-71
2022/04/15 12:54:55;;;;;;;5.55;4.03;;;;;;;;;;6155055;23;20029;-75
2022/04/15 12:57:23;;;;;;;4.05;3.65;;;;;;;;;;6160921;23;20017;-76
2022/04/15 12:59:51;;;;;;;6.95;6.00;;;;;;;;;;6162528;23;20017;-76
2022/04/15 13:02:19;;;;;;;7.22;5.63;;;;;;;;;;6156737;23;20021;-79
2022/04/15 13:04:54;;;;;;;5.28;4.78;;;;;;;;;;6162432;23;20072;-77
2022/04/15 13:07:22;;;;;;;7.88;5.00;;;;;;;;;;6152238;23;20033;-76
2022/04/15 13:09:50;;;;;;;6.00;4.60;;;;;;;;;;6157944;23;20341;-75
2022/04/15 13:12:38;;;;;;;7.25;5.10;;;;;;;;;;6162730;23;20018;-75
2022/04/15 13:15:07;;;;;;;5.68;4.43;;;;;;;;;;6153333;23;20026;-81
2022/04/15 13:17:36;;;;;;;4.55;4.15;;;;;;;;;;6158038;23;20022;-78
2022/04/15 13:20:04;;;;;;;5.22;4.72;;;;;;;;;;6162534;23;20029;-78
2022/04/15 13:22:32;;;;;;;6.15;4.55;;;;;;;;;;6155556;23;20030;-78
2022/04/15 13:25:01;;;;;;;4.40;3.70;;;;;;;;;;6162400;23;20024;-78
2022/04/15 13:27:30;;;;;;;3.85;3.30;;;;;;;;;;6151601;23;20021;-78
2022/04/15 13:29:59;;;;;;;4.07;3.30;;;;;;;;;;6156871;23;20025;-79
2022/04/15 13:32:27;;;;;;;5.80;5.28;;;;;;;;;;6162398;23;20014;-78
2022/04/15 13:34:55;;;;;;;7.88;4.40;;;;;;;;;;6153850;23;20441;-78
2022/04/15 13:37:23;;;;;;;4.53;3.50;;;;;;;;;;6160278;23;20022;-78
2022/04/15 13:39:51;;;;;;;3.85;3.53;;;;;;;;;;6160713;23;20014;-78
2022/04/15 13:42:21;;;;;;;7.70;4.82;;;;;;;;;;6156756;23;20025;-78
2022/04/15 13:44:51;;;;;;;3.20;2.90;;;;;;;;;;6162351;23;20342;-80
2022/04/15 13:47:32;;;;;;;3.72;3.22;;;;;;;;;;6126084;23;20268;-78
2022/04/15 13:50:01;;;;;;;3.78;3.33;;;;;;;;;;6152101;23;20025;-78
2022/04/15 13:58:03;;;;;;;3.67;3.25;;;;;;;;;;6159262;23;20017;-78
2022/04/15 14:00:31;;;;;;;3.63;3.03;;;;;;;;;;6164111;23;20020;-78
2022/04/15 14:02:59;;;;;;;6.60;4.53;;;;;;;;;;6152214;23;20026;-79
2022/04/15 14:05:28;;;;;;;5.78;5.18;;;;;;;;;;6160980;23;20353;-79
2022/04/15 14:07:56;;;;;;;5.53;5.03;;;;;;;;;;6163968;23;20014;-79
2022/04/15 14:10:24;;;;;;;6.35;5.03;;;;;;;;;;6126193;23;20078;-78
2022/04/15 14:12:52;;;;;;;5.13;4.13;;;;;;;;;;6128275;23;20052;-82
2022/04/15 14:15:23;;;;;;;4.70;4.28;;;;;;;;;;6128552;23;20030;-82
2022/04/15 14:17:52;;;;;;;4.93;4.50;;;;;;;;;;6134094;23;20029;-78
2022/04/15 14:20:21;;;;;;;5.25;4.75;;;;;;;;;;6127698;23;20021;-77
2022/04/15 14:22:49;;;;;;;5.82;4.40;;;;;;;;;;6105679;23;20048;-78
2022/04/15 14:25:18;;;;;;;5.75;3.75;;;;;;;;;;6136384;23;20044;-80
2022/04/15 14:27:46;;;;;;;5.90;4.80;;;;;;;;;;6138027;23;20084;-80
2022/04/15 14:30:14;;;;;;;4.68;4.28;;;;;;;;;;6132752;23;20029;-78
2022/04/15 14:32:43;;;;;;;5.43;4.47;;;;;;;;;;6137441;23;20017;-78
2022/04/15 14:35:11;;;;;;;7.18;5.05;;;;;;;;;;6154374;23;20025;-78
2022/04/15 14:37:39;;;;;;;3.75;3.42;;;;;;;;;;6134885;23;20018;-79
2022/04/15 14:40:08;;;;;;;5.18;4.68;;;;;;;;;;6163996;23;20014;-77
2022/04/15 14:42:36;;;;;;;4.68;3.65;;;;;;;;;;6127650;23;20484;-78
2022/04/15 14:45:04;;;;;;;3.55;3.25;;;;;;;;;;6137068;23;20036;-78
2022/04/15 14:47:32;;;;;;;7.10;5.47;;;;;;;;;;6164325;23;20433;-80
2022/04/15 14:50:03;;;;;;;6.90;4.88;;;;;;;;;;6158798;23;20025;-79
2022/04/15 14:52:31;;;;;;;6.18;4.60;;;;;;;;;;6113521;23;20639;-79
2022/04/15 14:55:00;;;;;;;6.50;4.72;;;;;;;;;;6100644;23;20025;-79
2022/04/15 14:57:28;;;;;;;5.60;4.63;;;;;;;;;;6159710;23;20017;-80
2022/04/15 14:59:57;;;;;;;6.82;5.15;;;;;;;;;;6163988;23;20013;-79